Stations météo

réclame
Mon MeteoGroup
Heino aws, Pays-Bas (6278): Température de l'air & dewpoint: 11.12.2018 20:00:00 - 17.12.2018 20:00:00 (CET)Heino aws, Pays-Bas (6278): Température de l'air 5cm: 11.12.2018 20:00:00 - 17.12.2018 20:00:00 (CET)Heino aws, Pays-Bas (6278): Vitesse du vent & gusts: 11.12.2018 20:00:00 - 17.12.2018 20:00:00 (CET)Heino aws, Pays-Bas (6278): Direction du vent: 11.12.2018 20:00:00 - 17.12.2018 20:00:00 (CET)Heino aws, Pays-Bas (6278): Quantités de précipitations: 11.12.2018 20:00:00 - 17.12.2018 20:00:00 (CET)
Date & Time tt [°C] td [°C] tt 5cm [°C] ff [km/h] ff [knt] fx [km/h] fx [knt] dd rr [mm]
17.12.2018 20:00:00 5,5 4,8 4,5 11 6 22 12 SW 0,0
17.12.2018 19:00:00 6,7 5,6 6,2 14 8 22 12 SW 0,0
17.12.2018 18:00:00 7,0 5,8 6,4 11 6 18 10 SW 0,0
17.12.2018 17:00:00 7,1 6,2 6,7 14 8 29 16 SW 0,0
17.12.2018 16:00:00 7,4 6,1 6,9 14 8 25 14 WSW 0,0
17.12.2018 15:00:00 7,4 6,5 7,2 14 8 22 12 SW 0,0
17.12.2018 14:00:00 7,3 6,7 7,3 14 8 22 12 SW 0,3
17.12.2018 13:00:00 6,8 6,4 6,8 11 6 18 10 SSW 0,6
17.12.2018 12:00:00 5,9 5,6 6,0 11 6 25 14 SSW 0,3
17.12.2018 11:00:00 5,2 4,8 5,1 11 6 25 14 S 0,5
17.12.2018 10:00:00 4,6 4,2 4,5 11 6 22 12 SSE 0,8
17.12.2018 09:00:00 4,3 3,7 4,1 11 6 18 10 SSE 0,0
17.12.2018 08:00:00 4,1 3,6 3,9 11 6 22 12 SSE 0,0
17.12.2018 07:00:00 3,7 3,5 3,5 11 6 22 12 SE 0,0
17.12.2018 06:00:00 3,2 3,1 3,2 11 6 18 10 SE 0,0
17.12.2018 05:00:00 2,9 2,8 2,8 7 4 14 8 SSE 0,0
17.12.2018 04:00:00 2,5 2,4 2,5 7 4 18 10 SSE 0,0
17.12.2018 03:00:00 2,3 2,2 2,4 7 4 22 12 S 0,0
17.12.2018 02:00:00 2,1 2,0 2,1 11 6 22 12 S 0,0
17.12.2018 01:00:00 2,1 2,0 2,2 7 4 18 10 SSE 0,0
17.12.2018 00:00:00 2,3 2,2 2,4 7 4 18 10 S 0,0
16.12.2018 23:00:00 2,5 2,5 2,6 7 4 14 8 S 0,0
16.12.2018 22:00:00 2,4 2,3 2,4 7 4 11 6 S 0,0
16.12.2018 21:00:00 2,3 2,2 2,3 4 2 11 6 SSE 0,0
16.12.2018 20:00:00 2,1 2,0 2,1 4 2 11 6 S 0,0
16.12.2018 19:00:00 1,7 1,6 1,8 4 2 14 8 S 0,0
16.12.2018 18:00:00 1,5 1,4 1,5 11 6 18 10 S 0,0
16.12.2018 17:00:00 1,3 1,3 1,4 7 4 14 8 SSE 0,0
16.12.2018 16:00:00 1,2 1,1 1,3 7 4 18 10 S 0,0
16.12.2018 15:00:00 0,9 0,8 1,1 7 4 14 8 S 0,0
16.12.2018 14:00:00 0,6 0,5 0,7 7 4 14 8 S 0,0
16.12.2018 13:00:00 0,2 0,1 0,3 7 4 18 10 S 0,0
16.12.2018 12:00:00 -0,1 -0,6 -0,1 7 4 18 10 SSE 0,0
16.12.2018 11:00:00 -0,4 -0,9 -0,4 11 6 22 12 SSE 0,0
16.12.2018 10:00:00 -0,7 -1,4 -0,8 11 6 18 10 SE 0,0
16.12.2018 09:00:00 -1,1 -1,7 -1,1 11 6 18 10 SE 0,1
16.12.2018 08:00:00 -1,2 -2,0 -1,2 11 6 22 12 SE 0,0
16.12.2018 07:00:00 -1,2 -2,8 -1,3 14 8 25 14 SE 0,0
16.12.2018 06:00:00 -1,4 -3,0 -1,5 11 6 25 14 SE 0,0
16.12.2018 05:00:00 -1,4 -3,5 -1,5 18 10 32 18 SE 0,1
16.12.2018 04:00:00 -1,3 -3,9 -1,5 18 10 32 18 SE 0,1
16.12.2018 03:00:00 -0,6 -5,2 -0,8 18 10 32 18 SE 0,0
16.12.2018 02:00:00 -0,6 -5,6 -0,8 14 8 32 18 SE 0,0
16.12.2018 01:00:00 -0,8 -5,4 -1,2 14 8 32 18 SE 0,0
16.12.2018 00:00:00 -1,0 -5,4 -1,4 14 8 32 18 SE 0,0
15.12.2018 23:00:00 -1,4 -5,2 -2,1 22 12 32 18 ESE 0,0
15.12.2018 22:00:00 -1,4 -5,0 -2,1 18 10 32 18 ESE 0,0
15.12.2018 21:00:00 -1,3 -4,9 -2,0 18 10 25 14 ESE 0,0
15.12.2018 20:00:00 -0,6 -5,0 -1,4 18 10 29 16 ESE 0,0
15.12.2018 19:00:00 0,2 -4,8 -0,2 18 10 40 21 SE 0,0
15.12.2018 18:00:00 0,5 -4,9 0,1 14 8 40 21 SE 0,0
15.12.2018 17:00:00 0,4 -4,7 0,2 18 10 40 21 SE 0,0
15.12.2018 16:00:00 0,5 -4,6 0,3 18 10 29 16 SE 0,0
15.12.2018 15:00:00 0,7 -4,7 0,5 14 8 29 16 SE 0,0
15.12.2018 14:00:00 0,8 -4,6 0,7 14 8 32 18 SSE 0,0
15.12.2018 13:00:00 1,0 -4,5 1,1 11 6 22 12 SE 0,0
15.12.2018 12:00:00 0,9 -4,0 0,9 11 6 14 8 SE 0,0
15.12.2018 11:00:00 0,5 -3,2 0,3 7 4 14 8 ESE 0,0
15.12.2018 10:00:00 0,5 -2,5 0,2 7 4 11 6 SE 0,0
15.12.2018 09:00:00 0,4 -2,6 0,0 7 4 14 8 SE 0,0
15.12.2018 08:00:00 0,3 -2,0 0,0 7 4 11 6 ESE 0,0
15.12.2018 07:00:00 0,2 -1,7 -0,1 7 4 11 6 ESE 0,0
15.12.2018 06:00:00 0,1 -1,5 -0,2 7 4 11 6 E 0,0
15.12.2018 05:00:00 0,1 -1,4 -0,2 7 4 11 6 E 0,0
15.12.2018 04:00:00 0,0 -1,4 -0,2 4 2 11 6 E 0,0
15.12.2018 03:00:00 0,1 -1,4 -0,1 7 4 11 6 E 0,0
15.12.2018 02:00:00 0,2 -1,5 0,0 7 4 11 6 E 0,0
15.12.2018 01:00:00 0,2 -1,5 0,0 7 4 11 6 E 0,0
15.12.2018 00:00:00 0,3 -1,6 0,2 7 4 14 8 E 0,0
14.12.2018 23:00:00 0,5 -1,8 0,3 11 6 14 8 E 0,0
14.12.2018 22:00:00 0,5 -1,7 0,3 7 4 14 8 ENE 0,0
14.12.2018 21:00:00 0,6 -1,6 0,3 7 4 14 8 ENE 0,0
14.12.2018 20:00:00 0,7 -1,7 0,4 7 4 14 8 E 0,0
14.12.2018 19:00:00 0,9 -1,8 0,5 7 4 18 10 E 0,0
14.12.2018 18:00:00 1,1 -1,9 0,7 11 6 18 10 ENE 0,0
14.12.2018 17:00:00 0,6 -1,7 -0,5 7 4 11 6 NE 0,0
14.12.2018 16:00:00 0,4 -1,8 -0,6 7 4 18 10 NE 0,0
14.12.2018 15:00:00 2,0 -1,3 1,6 14 8 22 12 ENE 0,0
14.12.2018 14:00:00 1,8 -0,9 1,8 14 8 25 14 ENE 0,0
14.12.2018 13:00:00 2,2 -0,2 2,5 14 8 29 16 ENE 0,0
14.12.2018 12:00:00 2,1 0,2 2,2 11 6 25 14 ENE 0,0
14.12.2018 11:00:00 1,5 -0,2 1,3 11 6 18 10 ENE 0,0
14.12.2018 10:00:00 0,9 -0,5 0,6 7 4 14 8 ENE 0,0
14.12.2018 09:00:00 0,1 -1,2 -0,6 7 4 14 8 ENE 0,0
14.12.2018 08:00:00 0,0 -1,3 -0,5 11 6 25 14 ENE 0,0
14.12.2018 07:00:00 1,1 -0,5 0,9 11 6 18 10 ENE 0,0
14.12.2018 06:00:00 1,4 0,0 1,1 11 6 22 12 NE 0,0
14.12.2018 05:00:00 1,5 0,2 1,2 11 6 22 12 ENE 0,0
14.12.2018 04:00:00 1,4 0,2 1,1 11 6 22 12 ENE 0,0
14.12.2018 03:00:00 1,4 0,1 1,1 11 6 22 12 ENE 0,0
14.12.2018 02:00:00 1,4 -0,1 1,0 11 6 18 10 ENE 0,0
14.12.2018 01:00:00 1,1 -0,2 0,6 11 6 14 8 NE 0,0
14.12.2018 00:00:00 1,0 -0,4 0,6 7 4 14 8 ENE 0,0
13.12.2018 23:00:00 1,1 -0,4 0,7 7 4 18 10 ENE 0,0
13.12.2018 22:00:00 1,4 -0,4 1,1 7 4 18 10 NE 0,0
13.12.2018 21:00:00 1,2 -0,6 0,9 11 6 18 10 ENE 0,0
13.12.2018 20:00:00 1,6 -0,8 1,2 14 8 25 14 ENE 0,0
13.12.2018 19:00:00 1,7 -0,7 1,2 14 8 22 12 ENE 0,0
13.12.2018 18:00:00 1,9 -0,7 1,4 14 8 22 12 ENE 0,0
13.12.2018 17:00:00 1,9 -0,7 1,4 11 6 18 10 ENE 0,0
13.12.2018 16:00:00 2,2 -0,6 1,3 11 6 25 14 ENE 0,0
13.12.2018 15:00:00 2,7 -0,1 2,4 14 8 32 18 ENE 0,0
13.12.2018 14:00:00 3,0 0,1 3,1 18 10 29 16 E 0,0
13.12.2018 13:00:00 2,6 0,4 2,6 14 8 22 12 E 0,0
13.12.2018 12:00:00 1,8 0,3 1,4 14 8 25 14 E 0,0
13.12.2018 11:00:00 0,9 -0,3 0,6 14 8 25 14 E 0,0
13.12.2018 10:00:00 0,0 -1,0 -0,5 11 6 22 12 E 0,0
13.12.2018 09:00:00 -0,5 -1,5 -1,5 14 8 22 12 E 0,0
13.12.2018 08:00:00 -0,8 -1,7 -1,6 11 6 22 12 E 0,0
13.12.2018 07:00:00 -0,2 -1,0 -1,0 11 6 22 12 E 0,0
13.12.2018 06:00:00 0,0 -0,8 -0,8 14 8 22 12 E 0,0
13.12.2018 05:00:00 0,4 -0,3 -0,5 11 6 22 12 ENE 0,0
13.12.2018 04:00:00 0,4 -0,1 -0,4 11 6 18 10 E 0,0
13.12.2018 03:00:00 -1,4 -1,7 -3,7 7 4 11 6 ENE 0,0
13.12.2018 02:00:00 -0,2 -0,5 -2,6 4 2 14 8 ENE 0,0
13.12.2018 01:00:00 -0,5 -1,2 -2,1 7 4 18 10 ENE 0,0
13.12.2018 00:00:00 -1,7 -2,3 -3,8 7 4 11 6 ENE 0,0
12.12.2018 23:00:00 -1,1 -1,5 -3,4 4 2 7 4 ENE 0,0
12.12.2018 22:00:00 1,1 0,1 -0,3 7 4 14 8 ENE 0,0
12.12.2018 21:00:00 0,7 -0,3 -0,8 7 4 11 6 ENE 0,0
12.12.2018 20:00:00 0,3 -0,4 -1,5 4 2 7 4 ENE 0,0
12.12.2018 19:00:00 -0,7 -1,6 -3,6 4 2 11 6 ENE 0,0
12.12.2018 18:00:00 0,1 -0,6 -2,8 4 2 7 4 ENE 0,0
12.12.2018 17:00:00 1,0 0,3 -0,8 4 2 7 4 ENE 0,0
12.12.2018 16:00:00 3,6 1,8 3,2 7 4 11 6 ENE 0,0
12.12.2018 15:00:00 4,2 2,1 4,3 7 4 11 6 NE 0,0
12.12.2018 14:00:00 4,2 1,9 4,4 7 4 14 8 ENE 0,0
12.12.2018 13:00:00 3,8 2,1 4,0 7 4 11 6 ENE 0,0
12.12.2018 12:00:00 3,4 1,9 3,6 4 2 7 4 NE 0,0
12.12.2018 11:00:00 2,7 1,3 2,1 7 4 11 6 NE 0,0
12.12.2018 10:00:00 0,8 0,6 0,4 4 2 7 4 NE 0,0
12.12.2018 09:00:00 0,2 0,0 -0,9 0 0 11 6 N 0,0
12.12.2018 08:00:00 0,9 0,4 0,2 4 2 11 6 E 0,0
12.12.2018 07:00:00 0,3 0,1 -0,5 4 2 4 2 ENE 0,0
12.12.2018 06:00:00 -0,3 -0,5 -1,4 0 0 7 4 N 0,0
12.12.2018 05:00:00 -0,6 -0,9 -1,9 4 2 7 4 E 0,0
12.12.2018 04:00:00 0,0 -0,3 -0,8 4 2 4 2 N 0,0
12.12.2018 03:00:00 -0,4 -0,8 -0,8 0 0 4 2 N 0,0
12.12.2018 02:00:00 -0,7 -0,8 -3,0 0 0 4 2 N 0,0
12.12.2018 01:00:00 -1,4 -1,5 -4,4 0 0 4 2 N 0,0
12.12.2018 00:00:00 -0,6 -0,9 -3,8 4 2 7 4 W 0,0
11.12.2018 23:00:00 -0,8 -1,1 -3,6 4 2 4 2 WSW 0,0
11.12.2018 22:00:00 -0,6 -0,8 -3,2 4 2 7 4 WSW 0,0
11.12.2018 21:00:00 0,1 -0,1 -2,7 4 2 4 2 WSW 0,0
11.12.2018 20:00:00 0,5 0,0 -1,8 4 2 7 4 W 0,0

tt = Température de l'air
td = dewpoint
tt 5cm = Température de l'air 5cm
ff = Vitesse du vent
fx = gusts
dd = Direction du vent
rr = Quantités de précipitations

stations d'obs. à proximité